MSC Claudia — 3FZA6 — position and weather

sailwx.info

Track history (hours):
 
Tides and Currents Weather Stations Pressure Air Temp Water Temp Dewpoint Dewpoint Depression Visibility Wind Speed Wind Dir Waves Ship Positions

MSC Claudia

Last reported at 2015-Mar-06 23:33 UTC. Time now 2015-Mar-07 00:11 UTC.
Position N 43°25' E 004°50'.

Length 292 m; draft 8.5 m.

Type: Ship (hazmat cat A). MMSI: 370606000.

Date/timePositionNaut miles runAvg speedWind from/ knotsBaromVisibWave heightAir tempDewpointWater temp
2015-Mar-06 23:33N 43°25' E 004°50'0 0.0
2015-Mar-06 22:33N 43°25' E 004°50'0 0.0
2015-Mar-06 21:33N 43°25' E 004°50'0 0.0
2015-Mar-06 20:30N 43°25' E 004°50'0 0.0
2015-Mar-06 19:33N 43°25' E 004°50'0 0.0
2015-Mar-06 18:33N 43°25' E 004°50'0 0.0
2015-Mar-06 17:33N 43°25' E 004°50'0 0.0
2015-Mar-06 16:30N 43°25' E 004°50'0 0.0
2015-Mar-06 15:30N 43°25' E 004°50'0 0.0
2015-Mar-06 14:30N 43°25' E 004°50'1 1.0
2015-Mar-06 13:34N 43°25' E 004°51'7 7.3
2015-Mar-06 12:34N 43°20' E 004°59'9 8.6
2015-Mar-06 11:33N 43°12' E 005°03'7 7.0
2015-Mar-06 10:33N 43°06' E 004°57'2 2.1
2015-Mar-06 09:33N 43°08' E 004°59'4 4.5
2015-Mar-06 08:34N 43°11' E 005°03'1610.9
2015-Mar-06 07:05N 42°58' E 004°50'713.3
2015-Mar-06 06:33N 42°53' E 004°43'1514.8
2015-Mar-06 05:33N 42°42' E 004°30'1514.6
2015-Mar-06 04:34N 42°31' E 004°17'1514.8
2015-Mar-06 03:33N 42°20' E 004°03'1514.6
2015-Mar-06 02:33N 42°09' E 003°50'1313.5
2015-Mar-06 01:33N 41°59' E 003°39'1413.7
2015-Mar-06 00:34N 41°48' E 003°27'1414.2
2015-Mar-05 23:34N 41°38' E 003°14'1414.1
2015-Mar-05 22:33N 41°28' E 003°01'1615.8
2015-Mar-05 21:33N 41°16' E 002°46'1716.7
2015-Mar-05 20:33N 41°03' E 002°32'1716.7
2015-Mar-05 19:33N 40°51' E 002°17'1616.0
2015-Mar-05 18:33N 40°39' E 002°03'1616.3
2015-Mar-05 17:33N 40°27' E 001°49'1616.2
2015-Mar-05 16:33N 40°15' E 001°34'1515.3
2015-Mar-05 15:33N 40°04' E 001°21'1515.3
2015-Mar-05 14:33N 39°52' E 001°08'7017.4
2015-Mar-05 10:33N 39°25' W 000°16'3 2.9
2015-Mar-05 09:32N 39°26' W 000°19'0 0.0
2015-Mar-05 08:32N 39°26' W 000°19'0 0.0
2015-Mar-05 07:32N 39°26' W 000°19'0 0.0
2015-Mar-05 06:32N 39°26' W 000°19'0 0.0
2015-Mar-05 05:32N 39°26' W 000°19'0 0.0
2015-Mar-05 04:31N 39°26' W 000°19'0 0.0
2015-Mar-05 03:31N 39°26' W 000°19'0 0.0
2015-Mar-05 02:25N 39°26' W 000°19'0 0.0
2015-Mar-05 01:31N 39°26' W 000°19'0 0.0
2015-Mar-05 00:31N 39°26' W 000°19'0 0.0
2015-Mar-04 23:22N 39°26' W 000°19'0 0.0
2015-Mar-04 22:31N 39°26' W 000°19'0 0.0
2015-Mar-04 21:31N 39°26' W 000°19'0 0.0
2015-Mar-04 20:31N 39°26' W 000°19'0 0.0
2015-Mar-04 19:31N 39°26' W 000°19'0 0.0
2015-Mar-04 18:31N 39°26' W 000°19'0 0.0
2015-Mar-04 17:31N 39°26' W 000°19'0 0.0
2015-Mar-04 16:22N 39°26' W 000°19'2 2.0
2015-Mar-04 15:34N 39°25' W 000°17'7 6.6
2015-Mar-04 14:33N 39°24' W 000°09'56 5.0
2015-Mar-04 03:27N 39°20' E 001°03'1111.8
2015-Mar-04 02:33N 39°17' E 001°16'1211.9
2015-Mar-04 01:33N 39°15' E 001°31'1212.0
2015-Mar-04 00:33N 39°12' E 001°46'1211.6
2015-Mar-03 23:33N 39°09' E 002°01'1211.9
2015-Mar-03 22:33N 39°07' E 002°16'1212.0
2015-Mar-03 21:33N 39°05' E 002°31'1212.0
2015-Mar-03 20:33N 39°01' E 002°46'1212.3
2015-Mar-03 19:33N 38°59' E 003°01'1212.3
2015-Mar-03 18:33N 38°55' E 003°16'1212.2
2015-Mar-03 17:33N 38°52' E 003°32'1312.8
2015-Mar-03 16:33N 38°49' E 003°47'1312.9
2015-Mar-03 15:33N 38°45' E 004°04'1312.8
2015-Mar-03 14:33N 38°43' E 004°20'1512.7
2015-Mar-03 13:21N 38°39' E 004°39'19616.6
2015-Mar-03 01:31N 37°54' E 008°42'5217.2
2015-Mar-02 22:30N 37°42' E 009°45'19117.5
2015-Mar-02 11:33N 36°52' E 013°38'1717.5
2015-Mar-02 10:33N 36°47' E 013°59'1817.6
2015-Mar-02 09:33N 36°42' E 014°20'1616.4
2015-Mar-02 08:33N 36°38' E 014°39'1916.4
2015-Mar-02 07:25N 36°34' E 015°02'41715.0
2015-Mar-01 03:33N 37°23' E 023°41'1717.3
2015-Mar-01 02:33N 37°40' E 023°42'1413.8
2015-Mar-01 01:33N 37°53' E 023°36'4 4.1
2015-Mar-01 00:32N 37°57' E 023°36'0 0.0
2015-Feb-28 23:32N 37°57' E 023°36'0 0.0
2015-Feb-28 22:32N 37°57' E 023°36'0 0.0
2015-Feb-28 21:29N 37°57' E 023°36'0 0.0
2015-Feb-28 20:32N 37°57' E 023°36'0 0.0
2015-Feb-28 19:32N 37°57' E 023°36'0 0.0
2015-Feb-28 18:28N 37°57' E 023°36'0 0.0
2015-Feb-28 17:31N 37°57' E 023°36'0 0.0
2015-Feb-28 16:31N 37°57' E 023°36'0 0.0
2015-Feb-28 15:31N 37°57' E 023°36'0 0.0
2015-Feb-28 14:31N 37°57' E 023°36'0 0.0
2015-Feb-28 13:31N 37°57' E 023°36'0 0.0
2015-Feb-28 12:31N 37°57' E 023°36'0 0.0
2015-Feb-28 11:25N 37°57' E 023°36'0 0.0
2015-Feb-28 10:31N 37°57' E 023°36'0 0.3
2015-Feb-28 09:33N 37°57' E 023°36'5 4.9
2015-Feb-28 08:33N 37°52' E 023°37'2 1.8
2015-Feb-28 07:33N 37°50' E 023°36'1 1.0
2015-Feb-28 06:34N 37°51' E 023°36'1 0.8
2015-Feb-28 05:33N 37°52' E 023°36'2 2.2
2015-Feb-28 04:33N 37°52' E 023°38'1 1.2
2015-Feb-28 03:33N 37°51' E 023°39'7 6.5
2015-Feb-28 02:33N 37°45' E 023°43'9 8.8
2015-Feb-28 01:34N 37°37' E 023°46'  
Track history (hours):
 
Tides and Currents Weather Stations Pressure Air Temp Water Temp Dewpoint Dewpoint Depression Visibility Wind Speed Wind Dir Waves Ship Positions

MSC Claudia

Last reported at 2015-Mar-06 23:33 UTC. Time now 2015-Mar-07 00:11 UTC.
Position N 43°25' E 004°50'.

Length 292 m; draft 8.5 m.

Type: Ship (hazmat cat A). MMSI: 370606000.

Date/timePositionNaut miles runAvg speedWind from/ knotsBaromVisibWave heightAir tempDewpointWater temp
2015-Mar-06 23:33N 43°25' E 004°50'0 0.0
2015-Mar-06 22:33N 43°25' E 004°50'0 0.0
2015-Mar-06 21:33N 43°25' E 004°50'0 0.0
2015-Mar-06 20:30N 43°25' E 004°50'0 0.0
2015-Mar-06 19:33N 43°25' E 004°50'0 0.0
2015-Mar-06 18:33N 43°25' E 004°50'0 0.0
2015-Mar-06 17:33N 43°25' E 004°50'0 0.0
2015-Mar-06 16:30N 43°25' E 004°50'0 0.0
2015-Mar-06 15:30N 43°25' E 004°50'0 0.0
2015-Mar-06 14:30N 43°25' E 004°50'1 1.0
2015-Mar-06 13:34N 43°25' E 004°51'7 7.3
2015-Mar-06 12:34N 43°20' E 004°59'9 8.6
2015-Mar-06 11:33N 43°12' E 005°03'7 7.0
2015-Mar-06 10:33N 43°06' E 004°57'2 2.1
2015-Mar-06 09:33N 43°08' E 004°59'4 4.5
2015-Mar-06 08:34N 43°11' E 005°03'1610.9
2015-Mar-06 07:05N 42°58' E 004°50'713.3
2015-Mar-06 06:33N 42°53' E 004°43'1514.8
2015-Mar-06 05:33N 42°42' E 004°30'1514.6
2015-Mar-06 04:34N 42°31' E 004°17'1514.8
2015-Mar-06 03:33N 42°20' E 004°03'1514.6
2015-Mar-06 02:33N 42°09' E 003°50'1313.5
2015-Mar-06 01:33N 41°59' E 003°39'1413.7
2015-Mar-06 00:34N 41°48' E 003°27'1414.2
2015-Mar-05 23:34N 41°38' E 003°14'1414.1
2015-Mar-05 22:33N 41°28' E 003°01'1615.8
2015-Mar-05 21:33N 41°16' E 002°46'1716.7
2015-Mar-05 20:33N 41°03' E 002°32'1716.7
2015-Mar-05 19:33N 40°51' E 002°17'1616.0
2015-Mar-05 18:33N 40°39' E 002°03'1616.3
2015-Mar-05 17:33N 40°27' E 001°49'1616.2
2015-Mar-05 16:33N 40°15' E 001°34'1515.3
2015-Mar-05 15:33N 40°04' E 001°21'1515.3
2015-Mar-05 14:33N 39°52' E 001°08'7017.4
2015-Mar-05 10:33N 39°25' W 000°16'3 2.9
2015-Mar-05 09:32N 39°26' W 000°19'0 0.0
2015-Mar-05 08:32N 39°26' W 000°19'0 0.0
2015-Mar-05 07:32N 39°26' W 000°19'0 0.0
2015-Mar-05 06:32N 39°26' W 000°19'0 0.0
2015-Mar-05 05:32N 39°26' W 000°19'0 0.0
2015-Mar-05 04:31N 39°26' W 000°19'0 0.0
2015-Mar-05 03:31N 39°26' W 000°19'0 0.0
2015-Mar-05 02:25N 39°26' W 000°19'0 0.0
2015-Mar-05 01:31N 39°26' W 000°19'0 0.0
2015-Mar-05 00:31N 39°26' W 000°19'0 0.0
2015-Mar-04 23:22N 39°26' W 000°19'0 0.0
2015-Mar-04 22:31N 39°26' W 000°19'0 0.0
2015-Mar-04 21:31N 39°26' W 000°19'0 0.0
2015-Mar-04 20:31N 39°26' W 000°19'0 0.0
2015-Mar-04 19:31N 39°26' W 000°19'0 0.0
2015-Mar-04 18:31N 39°26' W 000°19'0 0.0
2015-Mar-04 17:31N 39°26' W 000°19'0 0.0
2015-Mar-04 16:22N 39°26' W 000°19'2 2.0
2015-Mar-04 15:34N 39°25' W 000°17'7 6.6
2015-Mar-04 14:33N 39°24' W 000°09'56 5.0
2015-Mar-04 03:27N 39°20' E 001°03'1111.8
2015-Mar-04 02:33N 39°17' E 001°16'1211.9
2015-Mar-04 01:33N 39°15' E 001°31'1212.0
2015-Mar-04 00:33N 39°12' E 001°46'1211.6
2015-Mar-03 23:33N 39°09' E 002°01'1211.9
2015-Mar-03 22:33N 39°07' E 002°16'1212.0
2015-Mar-03 21:33N 39°05' E 002°31'1212.0
2015-Mar-03 20:33N 39°01' E 002°46'1212.3
2015-Mar-03 19:33N 38°59' E 003°01'1212.3
2015-Mar-03 18:33N 38°55' E 003°16'1212.2
2015-Mar-03 17:33N 38°52' E 003°32'1312.8
2015-Mar-03 16:33N 38°49' E 003°47'1312.9
2015-Mar-03 15:33N 38°45' E 004°04'1312.8
2015-Mar-03 14:33N 38°43' E 004°20'1512.7
2015-Mar-03 13:21N 38°39' E 004°39'19616.6
2015-Mar-03 01:31N 37°54' E 008°42'5217.2
2015-Mar-02 22:30N 37°42' E 009°45'19117.5
2015-Mar-02 11:33N 36°52' E 013°38'1717.5
2015-Mar-02 10:33N 36°47' E 013°59'1817.6
2015-Mar-02 09:33N 36°42' E 014°20'1616.4
2015-Mar-02 08:33N 36°38' E 014°39'1916.4
2015-Mar-02 07:25N 36°34' E 015°02'41715.0
2015-Mar-01 03:33N 37°23' E 023°41'1717.3
2015-Mar-01 02:33N 37°40' E 023°42'1413.8
2015-Mar-01 01:33N 37°53' E 023°36'4 4.1
2015-Mar-01 00:32N 37°57' E 023°36'0 0.0
2015-Feb-28 23:32N 37°57' E 023°36'0 0.0
2015-Feb-28 22:32N 37°57' E 023°36'0 0.0
2015-Feb-28 21:29N 37°57' E 023°36'0 0.0
2015-Feb-28 20:32N 37°57' E 023°36'0 0.0
2015-Feb-28 19:32N 37°57' E 023°36'0 0.0
2015-Feb-28 18:28N 37°57' E 023°36'0 0.0
2015-Feb-28 17:31N 37°57' E 023°36'0 0.0
2015-Feb-28 16:31N 37°57' E 023°36'0 0.0
2015-Feb-28 15:31N 37°57' E 023°36'0 0.0
2015-Feb-28 14:31N 37°57' E 023°36'0 0.0
2015-Feb-28 13:31N 37°57' E 023°36'0 0.0
2015-Feb-28 12:31N 37°57' E 023°36'0 0.0
2015-Feb-28 11:25N 37°57' E 023°36'0 0.0
2015-Feb-28 10:31N 37°57' E 023°36'0 0.3
2015-Feb-28 09:33N 37°57' E 023°36'5 4.9
2015-Feb-28 08:33N 37°52' E 023°37'2 1.8
2015-Feb-28 07:33N 37°50' E 023°36'1 1.0
2015-Feb-28 06:34N 37°51' E 023°36'1 0.8
2015-Feb-28 05:33N 37°52' E 023°36'2 2.2
2015-Feb-28 04:33N 37°52' E 023°38'1 1.2
2015-Feb-28 03:33N 37°51' E 023°39'7 6.5
2015-Feb-28 02:33N 37°45' E 023°43'9 8.8
2015-Feb-28 01:34N 37°37' E 023°46'  

Dump ship's entire track history